sensor_id;sensor_type;location;lat;lon;timestamp;temperature;humidity
47660;DHT22;33403;43.608;1.458;2023-04-03T00:00:14;10.50;99.90
47660;DHT22;33403;43.608;1.458;2023-04-03T00:02:40;10.50;99.90
47660;DHT22;33403;43.608;1.458;2023-04-03T00:05:06;10.40;99.90
47660;DHT22;33403;43.608;1.458;2023-04-03T00:07:32;10.40;99.90
47660;DHT22;33403;43.608;1.458;2023-04-03T00:09:58;10.40;99.90
47660;DHT22;33403;43.608;1.458;2023-04-03T00:12:23;10.40;99.90
47660;DHT22;33403;43.608;1.458;2023-04-03T00:14:49;10.40;99.90
47660;DHT22;33403;43.608;1.458;2023-04-03T00:17:15;10.40;99.90
47660;DHT22;33403;43.608;1.458;2023-04-03T00:19:40;10.40;99.90
47660;DHT22;33403;43.608;1.458;2023-04-03T00:22:06;10.40;99.90
47660;DHT22;33403;43.608;1.458;2023-04-03T00:24:32;10.40;99.90
47660;DHT22;33403;43.608;1.458;2023-04-03T00:26:57;10.50;99.90
47660;DHT22;33403;43.608;1.458;2023-04-03T00:29:23;10.50;99.90
47660;DHT22;33403;43.608;1.458;2023-04-03T00:31:48;10.50;99.90
47660;DHT22;33403;43.608;1.458;2023-04-03T00:34:14;10.40;99.90
47660;DHT22;33403;43.608;1.458;2023-04-03T00:36:40;10.40;99.90
47660;DHT22;33403;43.608;1.458;2023-04-03T00:39:06;10.40;99.90
47660;DHT22;33403;43.608;1.458;2023-04-03T00:41:31;10.50;99.90
47660;DHT22;33403;43.608;1.458;2023-04-03T00:43:58;10.40;99.90
47660;DHT22;33403;43.608;1.458;2023-04-03T00:46:23;10.40;99.90
47660;DHT22;33403;43.608;1.458;2023-04-03T00:48:50;10.40;99.90
47660;DHT22;33403;43.608;1.458;2023-04-03T00:51:24;10.30;99.90
47660;DHT22;33403;43.608;1.458;2023-04-03T00:54:01;10.30;99.90
47660;DHT22;33403;43.608;1.458;2023-04-03T00:56:29;10.30;99.90
47660;DHT22;33403;43.608;1.458;2023-04-03T00:59:04;10.30;99.90
47660;DHT22;33403;43.608;1.458;2023-04-03T01:01:31;10.30;99.90
47660;DHT22;33403;43.608;1.458;2023-04-03T01:04:00;10.30;99.90
47660;DHT22;33403;43.608;1.458;2023-04-03T01:06:29;10.30;99.90
47660;DHT22;33403;43.608;1.458;2023-04-03T01:08:59;10.30;99.90
47660;DHT22;33403;43.608;1.458;2023-04-03T01:11:25;10.30;99.90
47660;DHT22;33403;43.608;1.458;2023-04-03T01:13:52;10.30;99.90
47660;DHT22;33403;43.608;1.458;2023-04-03T01:16:18;10.20;99.90
47660;DHT22;33403;43.608;1.458;2023-04-03T01:18:45;10.20;99.90
47660;DHT22;33403;43.608;1.458;2023-04-03T01:21:34;10.30;99.90
47660;DHT22;33403;43.608;1.458;2023-04-03T01:24:30;10.30;99.90
47660;DHT22;33403;43.608;1.458;2023-04-03T01:26:57;10.30;99.90
47660;DHT22;33403;43.608;1.458;2023-04-03T01:29:23;10.30;99.90
47660;DHT22;33403;43.608;1.458;2023-04-03T01:31:56;10.30;99.90
47660;DHT22;33403;43.608;1.458;2023-04-03T01:34:22;10.30;99.90
47660;DHT22;33403;43.608;1.458;2023-04-03T01:36:47;10.30;99.90
47660;DHT22;33403;43.608;1.458;2023-04-03T01:39:13;10.30;99.90
47660;DHT22;33403;43.608;1.458;2023-04-03T01:41:39;10.30;99.90
47660;DHT22;33403;43.608;1.458;2023-04-03T01:44:05;10.30;99.90
47660;DHT22;33403;43.608;1.458;2023-04-03T01:46:31;10.30;99.90
47660;DHT22;33403;43.608;1.458;2023-04-03T01:48:57;10.30;99.90
47660;DHT22;33403;43.608;1.458;2023-04-03T01:51:23;10.30;99.90
47660;DHT22;33403;43.608;1.458;2023-04-03T01:53:48;10.30;99.90
47660;DHT22;33403;43.608;1.458;2023-04-03T01:56:14;10.30;99.90
47660;DHT22;33403;43.608;1.458;2023-04-03T01:58:40;10.20;99.90
47660;DHT22;33403;43.608;1.458;2023-04-03T02:01:05;10.20;99.90
47660;DHT22;33403;43.608;1.458;2023-04-03T02:03:32;10.20;99.90
47660;DHT22;33403;43.608;1.458;2023-04-03T02:05:57;10.10;99.90
47660;DHT22;33403;43.608;1.458;2023-04-03T02:08:23;10.20;99.90
47660;DHT22;33403;43.608;1.458;2023-04-03T02:10:49;10.10;99.90
47660;DHT22;33403;43.608;1.458;2023-04-03T02:13:17;10.10;99.90
47660;DHT22;33403;43.608;1.458;2023-04-03T02:15:43;10.10;99.90
47660;DHT22;33403;43.608;1.458;2023-04-03T02:18:09;10.10;99.90
47660;DHT22;33403;43.608;1.458;2023-04-03T02:20:35;10.10;99.90
47660;DHT22;33403;43.608;1.458;2023-04-03T02:23:00;10.10;99.90
47660;DHT22;33403;43.608;1.458;2023-04-03T02:25:26;10.10;99.90
47660;DHT22;33403;43.608;1.458;2023-04-03T02:27:52;10.10;99.90
47660;DHT22;33403;43.608;1.458;2023-04-03T02:30:18;10.10;99.90
47660;DHT22;33403;43.608;1.458;2023-04-03T02:32:44;10.10;99.90
47660;DHT22;33403;43.608;1.458;2023-04-03T02:35:11;10.10;99.90
47660;DHT22;33403;43.608;1.458;2023-04-03T02:37:37;10.10;99.90
47660;DHT22;33403;43.608;1.458;2023-04-03T02:40:03;10.10;99.90
47660;DHT22;33403;43.608;1.458;2023-04-03T02:42:30;10.10;99.90
47660;DHT22;33403;43.608;1.458;2023-04-03T02:44:55;10.10;99.90
47660;DHT22;33403;43.608;1.458;2023-04-03T02:47:21;10.10;99.90
47660;DHT22;33403;43.608;1.458;2023-04-03T02:49:47;10.10;99.90
47660;DHT22;33403;43.608;1.458;2023-04-03T02:52:13;10.10;99.90
47660;DHT22;33403;43.608;1.458;2023-04-03T02:54:39;10.00;99.90
47660;DHT22;33403;43.608;1.458;2023-04-03T02:57:05;10.00;99.90
47660;DHT22;33403;43.608;1.458;2023-04-03T02:59:33;10.00;99.90
47660;DHT22;33403;43.608;1.458;2023-04-03T03:01:58;9.90;99.90
47660;DHT22;33403;43.608;1.458;2023-04-03T03:04:24;10.00;99.90
47660;DHT22;33403;43.608;1.458;2023-04-03T03:06:50;9.90;99.90
47660;DHT22;33403;43.608;1.458;2023-04-03T03:09:16;10.00;99.90
47660;DHT22;33403;43.608;1.458;2023-04-03T03:11:42;10.00;99.90
47660;DHT22;33403;43.608;1.458;2023-04-03T03:14:07;10.00;99.90
47660;DHT22;33403;43.608;1.458;2023-04-03T03:16:33;10.00;99.90
47660;DHT22;33403;43.608;1.458;2023-04-03T03:18:59;9.90;99.90
47660;DHT22;33403;43.608;1.458;2023-04-03T03:21:25;9.90;99.90
47660;DHT22;33403;43.608;1.458;2023-04-03T03:23:51;10.00;99.90
47660;DHT22;33403;43.608;1.458;2023-04-03T03:26:17;10.00;99.90
47660;DHT22;33403;43.608;1.458;2023-04-03T03:28:42;10.00;99.90
47660;DHT22;33403;43.608;1.458;2023-04-03T03:31:08;10.00;99.90
47660;DHT22;33403;43.608;1.458;2023-04-03T03:33:34;10.00;99.90
47660;DHT22;33403;43.608;1.458;2023-04-03T03:36:00;10.00;99.90
47660;DHT22;33403;43.608;1.458;2023-04-03T03:38:26;10.00;99.90
47660;DHT22;33403;43.608;1.458;2023-04-03T03:40:51;9.80;99.90
47660;DHT22;33403;43.608;1.458;2023-04-03T03:43:17;9.90;99.90
47660;DHT22;33403;43.608;1.458;2023-04-03T03:45:44;9.90;99.90
47660;DHT22;33403;43.608;1.458;2023-04-03T03:48:11;9.90;99.90
47660;DHT22;33403;43.608;1.458;2023-04-03T03:50:36;10.00;99.90
47660;DHT22;33403;43.608;1.458;2023-04-03T03:53:02;10.00;99.90
47660;DHT22;33403;43.608;1.458;2023-04-03T03:55:28;10.00;99.90
47660;DHT22;33403;43.608;1.458;2023-04-03T03:57:53;10.00;99.90
47660;DHT22;33403;43.608;1.458;2023-04-03T04:00:19;10.00;99.90
47660;DHT22;33403;43.608;1.458;2023-04-03T04:02:45;10.00;99.90
47660;DHT22;33403;43.608;1.458;2023-04-03T04:05:11;9.90;99.90
47660;DHT22;33403;43.608;1.458;2023-04-03T04:07:37;9.80;99.90
47660;DHT22;33403;43.608;1.458;2023-04-03T04:10:03;9.90;99.90
47660;DHT22;33403;43.608;1.458;2023-04-03T04:12:29;9.90;99.90
47660;DHT22;33403;43.608;1.458;2023-04-03T04:14:55;9.90;99.90
47660;DHT22;33403;43.608;1.458;2023-04-03T04:17:21;10.00;99.90
47660;DHT22;33403;43.608;1.458;2023-04-03T04:19:47;10.00;99.90
47660;DHT22;33403;43.608;1.458;2023-04-03T04:22:13;9.90;99.90
47660;DHT22;33403;43.608;1.458;2023-04-03T04:24:38;9.90;99.90
47660;DHT22;33403;43.608;1.458;2023-04-03T04:27:04;9.80;99.90
47660;DHT22;33403;43.608;1.458;2023-04-03T04:29:30;9.80;99.90
47660;DHT22;33403;43.608;1.458;2023-04-03T04:32:00;9.80;99.90
47660;DHT22;33403;43.608;1.458;2023-04-03T04:34:26;9.80;99.90
47660;DHT22;33403;43.608;1.458;2023-04-03T04:36:51;9.90;99.90
47660;DHT22;33403;43.608;1.458;2023-04-03T04:39:17;9.90;99.90
47660;DHT22;33403;43.608;1.458;2023-04-03T04:41:43;9.90;99.90
47660;DHT22;33403;43.608;1.458;2023-04-03T04:44:08;9.80;99.90
47660;DHT22;33403;43.608;1.458;2023-04-03T04:46:34;9.80;99.90
47660;DHT22;33403;43.608;1.458;2023-04-03T04:49:00;9.90;99.90
47660;DHT22;33403;43.608;1.458;2023-04-03T04:51:25;9.90;99.90
47660;DHT22;33403;43.608;1.458;2023-04-03T04:53:51;9.90;99.90
47660;DHT22;33403;43.608;1.458;2023-04-03T04:56:16;9.80;99.90
47660;DHT22;33403;43.608;1.458;2023-04-03T04:58:42;9.80;99.90
47660;DHT22;33403;43.608;1.458;2023-04-03T05:01:10;9.80;99.90
47660;DHT22;33403;43.608;1.458;2023-04-03T05:03:36;9.80;99.90
47660;DHT22;33403;43.608;1.458;2023-04-03T05:06:02;9.80;99.90
47660;DHT22;33403;43.608;1.458;2023-04-03T05:08:28;9.80;99.90
47660;DHT22;33403;43.608;1.458;2023-04-03T05:10:54;9.80;99.90
47660;DHT22;33403;43.608;1.458;2023-04-03T05:13:20;9.70;99.90
47660;DHT22;33403;43.608;1.458;2023-04-03T05:15:46;9.80;99.90
47660;DHT22;33403;43.608;1.458;2023-04-03T05:18:12;9.70;99.90
47660;DHT22;33403;43.608;1.458;2023-04-03T05:20:38;9.80;99.90
47660;DHT22;33403;43.608;1.458;2023-04-03T05:23:04;9.80;99.90
47660;DHT22;33403;43.608;1.458;2023-04-03T05:25:30;9.80;99.90
47660;DHT22;33403;43.608;1.458;2023-04-03T05:27:55;9.70;99.90
47660;DHT22;33403;43.608;1.458;2023-04-03T05:30:21;9.70;99.90
47660;DHT22;33403;43.608;1.458;2023-04-03T05:32:47;9.70;99.90
47660;DHT22;33403;43.608;1.458;2023-04-03T05:35:13;9.70;99.90
47660;DHT22;33403;43.608;1.458;2023-04-03T05:37:39;9.80;99.90
47660;DHT22;33403;43.608;1.458;2023-04-03T05:40:06;9.80;99.90
47660;DHT22;33403;43.608;1.458;2023-04-03T05:42:32;9.90;99.90
47660;DHT22;33403;43.608;1.458;2023-04-03T05:44:58;9.90;99.90
47660;DHT22;33403;43.608;1.458;2023-04-03T05:47:23;9.90;99.90
47660;DHT22;33403;43.608;1.458;2023-04-03T05:49:49;9.90;99.90
47660;DHT22;33403;43.608;1.458;2023-04-03T05:52:22;9.80;99.90
47660;DHT22;33403;43.608;1.458;2023-04-03T05:54:48;9.80;99.90
47660;DHT22;33403;43.608;1.458;2023-04-03T05:57:17;9.80;99.90
47660;DHT22;33403;43.608;1.458;2023-04-03T05:59:44;9.80;99.90
47660;DHT22;33403;43.608;1.458;2023-04-03T06:02:15;9.80;99.90
47660;DHT22;33403;43.608;1.458;2023-04-03T06:04:41;9.80;99.90
47660;DHT22;33403;43.608;1.458;2023-04-03T06:07:11;9.80;99.90
47660;DHT22;33403;43.608;1.458;2023-04-03T06:09:37;9.90;99.90
47660;DHT22;33403;43.608;1.458;2023-04-03T06:12:03;9.90;99.90
47660;DHT22;33403;43.608;1.458;2023-04-03T06:14:28;9.90;99.90
47660;DHT22;33403;43.608;1.458;2023-04-03T06:16:54;9.90;99.90
47660;DHT22;33403;43.608;1.458;2023-04-03T06:19:20;9.90;99.90
47660;DHT22;33403;43.608;1.458;2023-04-03T06:21:46;10.00;99.90
47660;DHT22;33403;43.608;1.458;2023-04-03T06:24:14;9.90;99.90
47660;DHT22;33403;43.608;1.458;2023-04-03T06:26:40;10.00;99.90
47660;DHT22;33403;43.608;1.458;2023-04-03T06:29:06;10.00;99.90
47660;DHT22;33403;43.608;1.458;2023-04-03T06:31:32;9.90;99.90
47660;DHT22;33403;43.608;1.458;2023-04-03T06:33:58;9.90;99.90
47660;DHT22;33403;43.608;1.458;2023-04-03T06:36:24;9.90;99.90
47660;DHT22;33403;43.608;1.458;2023-04-03T06:38:50;10.00;99.90
47660;DHT22;33403;43.608;1.458;2023-04-03T06:41:15;10.00;99.90
47660;DHT22;33403;43.608;1.458;2023-04-03T06:43:42;10.00;99.90
47660;DHT22;33403;43.608;1.458;2023-04-03T06:46:20;10.00;99.90
47660;DHT22;33403;43.608;1.458;2023-04-03T06:48:46;10.00;99.90
47660;DHT22;33403;43.608;1.458;2023-04-03T06:51:27;9.90;99.90
47660;DHT22;33403;43.608;1.458;2023-04-03T06:53:57;10.00;99.90
47660;DHT22;33403;43.608;1.458;2023-04-03T06:56:23;10.00;99.90
47660;DHT22;33403;43.608;1.458;2023-04-03T06:58:51;10.00;99.90
47660;DHT22;33403;43.608;1.458;2023-04-03T07:01:17;10.10;99.90
47660;DHT22;33403;43.608;1.458;2023-04-03T07:03:45;10.00;99.90
47660;DHT22;33403;43.608;1.458;2023-04-03T07:06:13;10.10;99.90
47660;DHT22;33403;43.608;1.458;2023-04-03T07:08:39;10.00;99.90
47660;DHT22;33403;43.608;1.458;2023-04-03T07:11:05;10.10;99.90
47660;DHT22;33403;43.608;1.458;2023-04-03T07:13:31;10.10;99.90
47660;DHT22;33403;43.608;1.458;2023-04-03T07:15:58;10.10;99.90
47660;DHT22;33403;43.608;1.458;2023-04-03T07:18:24;10.10;99.90
47660;DHT22;33403;43.608;1.458;2023-04-03T07:20:50;10.10;99.90
47660;DHT22;33403;43.608;1.458;2023-04-03T07:23:15;10.10;99.90
47660;DHT22;33403;43.608;1.458;2023-04-03T07:25:49;10.20;99.90
47660;DHT22;33403;43.608;1.458;2023-04-03T07:28:15;10.10;99.90
47660;DHT22;33403;43.608;1.458;2023-04-03T07:30:52;10.20;99.90
47660;DHT22;33403;43.608;1.458;2023-04-03T07:33:20;10.20;99.90
47660;DHT22;33403;43.608;1.458;2023-04-03T07:35:46;10.30;99.90
47660;DHT22;33403;43.608;1.458;2023-04-03T07:38:12;10.30;99.90
47660;DHT22;33403;43.608;1.458;2023-04-03T07:40:38;10.20;99.90
47660;DHT22;33403;43.608;1.458;2023-04-03T07:43:04;10.30;99.90
47660;DHT22;33403;43.608;1.458;2023-04-03T07:45:31;10.40;99.90
47660;DHT22;33403;43.608;1.458;2023-04-03T07:47:57;10.40;99.90
47660;DHT22;33403;43.608;1.458;2023-04-03T07:50:23;10.50;99.90
47660;DHT22;33403;43.608;1.458;2023-04-03T07:52:49;10.50;99.90
47660;DHT22;33403;43.608;1.458;2023-04-03T07:55:16;10.60;99.90
47660;DHT22;33403;43.608;1.458;2023-04-03T07:57:41;10.60;99.90
47660;DHT22;33403;43.608;1.458;2023-04-03T08:00:08;10.60;99.90
47660;DHT22;33403;43.608;1.458;2023-04-03T08:02:35;10.60;99.90
47660;DHT22;33403;43.608;1.458;2023-04-03T08:05:00;10.60;99.90
47660;DHT22;33403;43.608;1.458;2023-04-03T08:07:26;10.60;99.90
47660;DHT22;33403;43.608;1.458;2023-04-03T08:09:52;10.60;99.90
47660;DHT22;33403;43.608;1.458;2023-04-03T08:12:18;10.50;99.90
47660;DHT22;33403;43.608;1.458;2023-04-03T08:14:43;10.60;99.90
47660;DHT22;33403;43.608;1.458;2023-04-03T08:17:09;10.60;99.90
47660;DHT22;33403;43.608;1.458;2023-04-03T08:19:38;10.60;99.90
47660;DHT22;33403;43.608;1.458;2023-04-03T08:22:04;10.60;99.90
47660;DHT22;33403;43.608;1.458;2023-04-03T08:24:31;10.60;99.90
47660;DHT22;33403;43.608;1.458;2023-04-03T08:26:57;10.70;99.90
47660;DHT22;33403;43.608;1.458;2023-04-03T08:29:23;10.80;99.90
47660;DHT22;33403;43.608;1.458;2023-04-03T08:31:49;10.90;99.90
47660;DHT22;33403;43.608;1.458;2023-04-03T08:34:15;11.10;99.90
47660;DHT22;33403;43.608;1.458;2023-04-03T08:36:41;11.10;99.90
47660;DHT22;33403;43.608;1.458;2023-04-03T08:39:07;11.20;99.90
47660;DHT22;33403;43.608;1.458;2023-04-03T08:47:02;11.30;99.90
47660;DHT22;33403;43.608;1.458;2023-04-03T08:52:12;11.60;99.90
47660;DHT22;33403;43.608;1.458;2023-04-03T08:54:52;11.60;99.90
47660;DHT22;33403;43.608;1.458;2023-04-03T08:57:26;11.60;99.90
47660;DHT22;33403;43.608;1.458;2023-04-03T08:59:53;11.60;99.90
47660;DHT22;33403;43.608;1.458;2023-04-03T09:02:30;11.50;99.90
47660;DHT22;33403;43.608;1.458;2023-04-03T09:04:57;11.70;99.90
47660;DHT22;33403;43.608;1.458;2023-04-03T09:07:35;11.80;99.90
47660;DHT22;33403;43.608;1.458;2023-04-03T09:10:01;11.80;99.90
47660;DHT22;33403;43.608;1.458;2023-04-03T09:12:42;11.80;99.90
47660;DHT22;33403;43.608;1.458;2023-04-03T09:22:58;11.90;99.90
47660;DHT22;33403;43.608;1.458;2023-04-03T09:25:35;11.80;99.90
47660;DHT22;33403;43.608;1.458;2023-04-03T09:28:02;11.90;99.90
47660;DHT22;33403;43.608;1.458;2023-04-03T09:30:29;12.00;99.90
47660;DHT22;33403;43.608;1.458;2023-04-03T09:32:56;12.10;99.90
47660;DHT22;33403;43.608;1.458;2023-04-03T09:35:48;12.20;99.90
47660;DHT22;33403;43.608;1.458;2023-04-03T09:38:16;12.40;99.90
47660;DHT22;33403;43.608;1.458;2023-04-03T09:40:50;12.40;99.90
47660;DHT22;33403;43.608;1.458;2023-04-03T09:43:34;12.50;99.90
47660;DHT22;33403;43.608;1.458;2023-04-03T09:46:36;12.50;99.90
47660;DHT22;33403;43.608;1.458;2023-04-03T09:49:04;12.50;99.90
47660;DHT22;33403;43.608;1.458;2023-04-03T09:51:31;12.40;99.90
47660;DHT22;33403;43.608;1.458;2023-04-03T09:53:57;12.50;99.90
47660;DHT22;33403;43.608;1.458;2023-04-03T09:56:25;12.80;99.90
47660;DHT22;33403;43.608;1.458;2023-04-03T10:01:32;13.00;99.90
47660;DHT22;33403;43.608;1.458;2023-04-03T10:04:14;13.00;99.90
47660;DHT22;33403;43.608;1.458;2023-04-03T10:06:50;12.90;99.90
47660;DHT22;33403;43.608;1.458;2023-04-03T10:09:25;13.00;99.90
47660;DHT22;33403;43.608;1.458;2023-04-03T10:14:28;13.30;99.90
47660;DHT22;33403;43.608;1.458;2023-04-03T10:20:09;13.30;99.90
47660;DHT22;33403;43.608;1.458;2023-04-03T10:27:58;13.30;99.90
47660;DHT22;33403;43.608;1.458;2023-04-03T10:33:35;13.50;99.90
47660;DHT22;33403;43.608;1.458;2023-04-03T10:42:28;13.80;99.90
47660;DHT22;33403;43.608;1.458;2023-04-03T10:53:45;13.80;99.90
47660;DHT22;33403;43.608;1.458;2023-04-03T10:56:32;13.80;99.90
47660;DHT22;33403;43.608;1.458;2023-04-03T11:01:54;13.50;99.90
47660;DHT22;33403;43.608;1.458;2023-04-03T11:04:22;13.60;99.90
47660;DHT22;33403;43.608;1.458;2023-04-03T11:06:49;14.00;99.90
47660;DHT22;33403;43.608;1.458;2023-04-03T11:09:28;14.40;99.90
47660;DHT22;33403;43.608;1.458;2023-04-03T11:12:05;14.30;99.90
47660;DHT22;33403;43.608;1.458;2023-04-03T11:14:36;14.00;99.90
47660;DHT22;33403;43.608;1.458;2023-04-03T11:22:28;13.90;99.90
47660;DHT22;33403;43.608;1.458;2023-04-03T11:25:03;13.70;99.90
47660;DHT22;33403;43.608;1.458;2023-04-03T11:27:37;13.70;99.90
47660;DHT22;33403;43.608;1.458;2023-04-03T11:30:09;13.60;99.90
47660;DHT22;33403;43.608;1.458;2023-04-03T11:35:49;13.70;99.90
47660;DHT22;33403;43.608;1.458;2023-04-03T11:38:37;13.80;99.90
47660;DHT22;33403;43.608;1.458;2023-04-03T11:41:08;13.80;99.90
47660;DHT22;33403;43.608;1.458;2023-04-03T11:43:55;13.80;99.90
47660;DHT22;33403;43.608;1.458;2023-04-03T11:46:21;13.80;99.90
47660;DHT22;33403;43.608;1.458;2023-04-03T11:48:49;13.90;99.90
47660;DHT22;33403;43.608;1.458;2023-04-03T11:53:46;13.90;99.90
47660;DHT22;33403;43.608;1.458;2023-04-03T12:01:54;14.00;99.90
47660;DHT22;33403;43.608;1.458;2023-04-03T12:04:23;14.10;99.90
47660;DHT22;33403;43.608;1.458;2023-04-03T12:07:11;14.20;99.90
47660;DHT22;33403;43.608;1.458;2023-04-03T12:12:27;14.00;99.90
47660;DHT22;33403;43.608;1.458;2023-04-03T12:14:53;14.10;99.90
47660;DHT22;33403;43.608;1.458;2023-04-03T12:17:28;14.10;99.90
47660;DHT22;33403;43.608;1.458;2023-04-03T12:19:54;14.20;99.90
47660;DHT22;33403;43.608;1.458;2023-04-03T12:22:21;14.30;99.90
47660;DHT22;33403;43.608;1.458;2023-04-03T12:24:49;14.40;99.90
47660;DHT22;33403;43.608;1.458;2023-04-03T12:27:25;14.40;99.90
47660;DHT22;33403;43.608;1.458;2023-04-03T12:35:43;14.40;99.90
47660;DHT22;33403;43.608;1.458;2023-04-03T12:38:35;14.30;99.90
47660;DHT22;33403;43.608;1.458;2023-04-03T12:41:25;14.10;99.90
47660;DHT22;33403;43.608;1.458;2023-04-03T12:44:15;14.10;99.90
47660;DHT22;33403;43.608;1.458;2023-04-03T12:46:51;14.10;99.90
47660;DHT22;33403;43.608;1.458;2023-04-03T12:51:52;14.00;99.90
47660;DHT22;33403;43.608;1.458;2023-04-03T12:57:21;13.90;99.90
47660;DHT22;33403;43.608;1.458;2023-04-03T12:59:49;13.80;99.90
47660;DHT22;33403;43.608;1.458;2023-04-03T13:02:21;13.80;99.90
47660;DHT22;33403;43.608;1.458;2023-04-03T13:04:49;13.90;99.90
47660;DHT22;33403;43.608;1.458;2023-04-03T13:07:22;14.00;99.90
47660;DHT22;33403;43.608;1.458;2023-04-03T13:12:35;14.20;99.90
47660;DHT22;33403;43.608;1.458;2023-04-03T13:15:13;14.20;99.90
47660;DHT22;33403;43.608;1.458;2023-04-03T13:17:42;14.30;99.90
47660;DHT22;33403;43.608;1.458;2023-04-03T13:20:27;14.40;99.90
47660;DHT22;33403;43.608;1.458;2023-04-03T13:23:00;14.50;99.90
47660;DHT22;33403;43.608;1.458;2023-04-03T13:25:30;14.60;99.90
47660;DHT22;33403;43.608;1.458;2023-04-03T13:27:57;14.60;99.90
47660;DHT22;33403;43.608;1.458;2023-04-03T13:30:30;14.60;99.90
47660;DHT22;33403;43.608;1.458;2023-04-03T13:32:59;14.60;99.90
47660;DHT22;33403;43.608;1.458;2023-04-03T13:35:37;14.70;99.90
47660;DHT22;33403;43.608;1.458;2023-04-03T13:38:23;14.70;99.90
47660;DHT22;33403;43.608;1.458;2023-04-03T13:40:54;14.80;99.90
47660;DHT22;33403;43.608;1.458;2023-04-03T13:43:27;14.80;99.90
47660;DHT22;33403;43.608;1.458;2023-04-03T13:48:46;14.60;99.90
47660;DHT22;33403;43.608;1.458;2023-04-03T13:58:54;14.50;99.90
47660;DHT22;33403;43.608;1.458;2023-04-03T14:01:22;14.50;99.90
47660;DHT22;33403;43.608;1.458;2023-04-03T14:04:09;14.40;99.90
47660;DHT22;33403;43.608;1.458;2023-04-03T14:06:35;14.60;99.90
47660;DHT22;33403;43.608;1.458;2023-04-03T14:09:01;14.70;99.90
47660;DHT22;33403;43.608;1.458;2023-04-03T14:11:29;14.80;99.90
47660;DHT22;33403;43.608;1.458;2023-04-03T14:13:58;14.70;99.90
47660;DHT22;33403;43.608;1.458;2023-04-03T14:16:28;14.50;99.90
47660;DHT22;33403;43.608;1.458;2023-04-03T14:18:56;14.30;99.90
47660;DHT22;33403;43.608;1.458;2023-04-03T14:21:22;14.20;99.90
47660;DHT22;33403;43.608;1.458;2023-04-03T14:23:49;14.20;99.90
47660;DHT22;33403;43.608;1.458;2023-04-03T14:26:18;14.30;99.90
47660;DHT22;33403;43.608;1.458;2023-04-03T14:28:45;14.20;99.90
47660;DHT22;33403;43.608;1.458;2023-04-03T14:31:12;14.10;99.90
47660;DHT22;33403;43.608;1.458;2023-04-03T14:33:39;14.00;99.90
47660;DHT22;33403;43.608;1.458;2023-04-03T14:36:23;13.80;99.90
47660;DHT22;33403;43.608;1.458;2023-04-03T14:38:50;13.80;99.90
47660;DHT22;33403;43.608;1.458;2023-04-03T14:41:20;13.80;99.90
47660;DHT22;33403;43.608;1.458;2023-04-03T14:43:48;14.00;99.90
47660;DHT22;33403;43.608;1.458;2023-04-03T14:46:21;14.10;99.90
47660;DHT22;33403;43.608;1.458;2023-04-03T14:48:48;14.10;99.90
47660;DHT22;33403;43.608;1.458;2023-04-03T14:51:14;14.20;99.90
47660;DHT22;33403;43.608;1.458;2023-04-03T14:53:41;14.20;99.90
47660;DHT22;33403;43.608;1.458;2023-04-03T14:56:16;14.20;99.90
47660;DHT22;33403;43.608;1.458;2023-04-03T14:58:43;14.30;99.90
47660;DHT22;33403;43.608;1.458;2023-04-03T15:01:10;14.30;99.90
47660;DHT22;33403;43.608;1.458;2023-04-03T15:03:37;14.30;99.90
47660;DHT22;33403;43.608;1.458;2023-04-03T15:06:03;14.30;99.90
47660;DHT22;33403;43.608;1.458;2023-04-03T15:08:29;14.40;99.90
47660;DHT22;33403;43.608;1.458;2023-04-03T15:10:55;14.40;99.90
47660;DHT22;33403;43.608;1.458;2023-04-03T15:13:22;14.40;99.90
47660;DHT22;33403;43.608;1.458;2023-04-03T15:15:49;14.40;99.90
47660;DHT22;33403;43.608;1.458;2023-04-03T15:18:19;14.30;99.90
47660;DHT22;33403;43.608;1.458;2023-04-03T15:20:45;14.30;99.90
47660;DHT22;33403;43.608;1.458;2023-04-03T15:23:12;14.30;99.90
47660;DHT22;33403;43.608;1.458;2023-04-03T15:25:39;14.30;99.90
47660;DHT22;33403;43.608;1.458;2023-04-03T15:28:05;14.30;99.90
47660;DHT22;33403;43.608;1.458;2023-04-03T15:30:31;14.30;99.90
47660;DHT22;33403;43.608;1.458;2023-04-03T15:32:57;14.30;99.90
47660;DHT22;33403;43.608;1.458;2023-04-03T15:35:22;14.30;99.90
47660;DHT22;33403;43.608;1.458;2023-04-03T15:37:48;14.20;99.90
47660;DHT22;33403;43.608;1.458;2023-04-03T15:40:14;14.10;99.90
47660;DHT22;33403;43.608;1.458;2023-04-03T15:42:40;14.10;99.90
47660;DHT22;33403;43.608;1.458;2023-04-03T15:45:06;14.10;99.90
47660;DHT22;33403;43.608;1.458;2023-04-03T15:47:32;14.10;99.90
47660;DHT22;33403;43.608;1.458;2023-04-03T15:49:58;14.10;99.90
47660;DHT22;33403;43.608;1.458;2023-04-03T15:52:24;14.20;99.90
47660;DHT22;33403;43.608;1.458;2023-04-03T15:54:49;14.30;99.90
47660;DHT22;33403;43.608;1.458;2023-04-03T15:57:15;14.40;99.90
47660;DHT22;33403;43.608;1.458;2023-04-03T15:59:41;14.30;99.90
47660;DHT22;33403;43.608;1.458;2023-04-03T16:02:08;14.10;99.90
47660;DHT22;33403;43.608;1.458;2023-04-03T16:04:35;13.90;99.90
47660;DHT22;33403;43.608;1.458;2023-04-03T16:07:04;13.70;99.90
47660;DHT22;33403;43.608;1.458;2023-04-03T16:09:31;13.60;99.90
47660;DHT22;33403;43.608;1.458;2023-04-03T16:11:58;13.40;99.90
47660;DHT22;33403;43.608;1.458;2023-04-03T16:14:23;13.40;99.90
47660;DHT22;33403;43.608;1.458;2023-04-03T16:16:49;13.40;99.90
47660;DHT22;33403;43.608;1.458;2023-04-03T16:19:15;13.50;99.90
47660;DHT22;33403;43.608;1.458;2023-04-03T16:21:41;13.50;99.90
47660;DHT22;33403;43.608;1.458;2023-04-03T16:24:06;13.40;99.90
47660;DHT22;33403;43.608;1.458;2023-04-03T16:26:32;13.40;99.90
47660;DHT22;33403;43.608;1.458;2023-04-03T16:28:58;13.40;99.90
47660;DHT22;33403;43.608;1.458;2023-04-03T16:31:25;13.30;99.90
47660;DHT22;33403;43.608;1.458;2023-04-03T16:33:51;13.30;99.90
47660;DHT22;33403;43.608;1.458;2023-04-03T16:36:17;13.20;99.90
47660;DHT22;33403;43.608;1.458;2023-04-03T16:38:43;13.20;99.90
47660;DHT22;33403;43.608;1.458;2023-04-03T16:41:08;13.20;99.90
47660;DHT22;33403;43.608;1.458;2023-04-03T16:43:34;13.20;99.90
47660;DHT22;33403;43.608;1.458;2023-04-03T16:46:01;13.20;99.90
47660;DHT22;33403;43.608;1.458;2023-04-03T16:48:28;13.20;99.90
47660;DHT22;33403;43.608;1.458;2023-04-03T16:50:53;13.20;99.90
47660;DHT22;33403;43.608;1.458;2023-04-03T16:53:20;13.20;99.90
47660;DHT22;33403;43.608;1.458;2023-04-03T16:55:46;13.20;99.90
47660;DHT22;33403;43.608;1.458;2023-04-03T16:58:12;13.20;99.90
47660;DHT22;33403;43.608;1.458;2023-04-03T17:00:37;13.10;99.90
47660;DHT22;33403;43.608;1.458;2023-04-03T17:03:03;13.00;99.90
47660;DHT22;33403;43.608;1.458;2023-04-03T17:05:29;13.00;99.90
47660;DHT22;33403;43.608;1.458;2023-04-03T17:07:55;12.90;99.90
47660;DHT22;33403;43.608;1.458;2023-04-03T17:10:21;13.00;99.90
47660;DHT22;33403;43.608;1.458;2023-04-03T17:12:46;13.00;99.90